Terminal Aerodrome Forecast
Issued by NWS

Home | Current Version | Previous Version | Text Only | Print | Product List | Glossary On
Versions: 1 2 3 4 5 6 7 8 9 10 11 12
000
FTUS45 KABQ 172300
TAFROW
TAF
KROW 172323Z 1800/1824 05008KT P6SM SKC
     FM180600 18005KT P6SM SKC
     FM181100 15009KT P6SM BKN025
     FM181600 17011KT P6SM BKN040=

USA.gov is the U.S. government's official web portal to all federal, state and local government web resources and services.